首页
METAR-TAF:

METAR-TAF

机场 :

图阿马西纳, 马达加斯加

纬度: 18-07S, 经度: 049-24E, 海拔: 5米

当前天气观测

该预报发布于1小时和2分钟前的14:00 UTC
风速6节,风向西南
温度 23°C
湿度 89%
气压 1019 hPa
能见度10公里或以上
少量云层高于700英尺
散云层高于1700英尺
多云层高于3300英尺
附近有阵雨

METAR: FMMT 171400Z 23006KT 9999 VCSH FEW007 SCT017 BKN033 23/21 Q1019 TEMPO 4000 RA

时间: 18:02 (15:02 UTC)

预报

该预报发布于4小时和2分钟前的11:00 UTC
预报有效从17日的 12点(UTC)到 18日的 12点(UTC)
风速10节,风向南转西南
能见度10公里或以上
少量云层高于700英尺
散云层高于1700英尺
多云层高于3300英尺
几率 40% :
短暂存在
从 17日的 12点(UTC)到 18日的 12点(UTC)
能見度: 4000
阵雨,

TAF: FMMT 171100Z 1712/1812 20010KT 9999 FEW007 SCT017 BKN033 PROB40 TEMPO 1712/1812 4000 SHRA

超过4000个机场的气象观测和天气预报(METAR&TAF报告)。

可查询的气象台以黄色和红色小点在地图上表示。

将鼠标移到小点上方,可查看气象台名称。

然后点击查看天气观测和预报。

如需切换地图:点击带黑十字的绿色按钮放大地图;点击带横线的绿色按钮缩小地图;或者点击绿色箭头查看邻近地区的地图。


METAR-TAF: